Campo (448) Station Data

Red Flag Warning: No
Fire Weather Zone: 258
SDGE Region: Mountain Empire
Lat/Lon: 32.599/-116.493

Observations

Time Wind Speed/Gust Temp(F) RH Fuel Moist Fuel Temp(F) Dewpt(F) Tmax(F) Tmin(F) Accum Precip 10-min Precip SL Press(mb)
2/27 11:40pm 214 15 G 26 48° 95% - - 47° 50.8° 44.8° - - -
2/27 11:20pm 215 11 G 17 48° 94% - - 46° 50.8° 44.8° - - -
2/27 11:10pm 211 11 G 19 48° 92% - - 46° 50.8° 44.8° - - -
2/27 11:00pm 201 13 G 18 48° 91% - - 46° 50.8° 44.8° - - -
2/27 10:50pm 206 13 G 21 48° 91% - - 46° 50.8° 44.8° - - -
2/27 10:40pm 207 13 G 20 48° 92% - - 46° 50.8° 44.8° - - -
2/27 10:30pm 202 12 G 21 48° 92% - - 46° 50.8° 44.8° - - -
2/27 10:20pm 202 14 G 24 48° 92% - - 46° 50.8° 44.8° - - -
2/27 10:10pm 198 14 G 21 48° 93% - - 46° 50.8° 44.8° - - -
2/27 10:00pm 200 13 G 21 48° 92% - - 46° 50.8° 44.8° - - -
2/27 9:50pm 204 12 G 18 48° 92% - - 46° 50.8° 44.8° - - -
2/27 9:40pm 197 13 G 19 48° 92% - - 46° 50.8° 44.8° - - -
2/27 9:30pm 199 14 G 21 48° 91% - - 46° 50.8° 44.8° - - -
2/27 9:20pm 197 13 G 20 48° 92% - - 46° 50.8° 44.8° - - -
2/27 9:10pm 203 10 G 15 48° 92% - - 46° 50.8° 44.8° - - -
2/27 9:00pm 198 10 G 17 48° 92% - - 46° 50.8° 44.8° - - -
2/27 8:50pm 203 12 G 24 48° 91% - - 46° 50.8° 44.8° - - -
2/27 8:40pm 207 14 G 22 48° 91% - - 46° 50.8° 44.8° - - -
2/27 8:30pm 198 13 G 22 48° 92% - - 46° 50.8° 44.8° - - -
2/27 8:20pm 206 10 G 16 48° 92% - - 46° 50.8° 44.8° - - -
2/27 8:10pm 194 12 G 21 48° 92% - - 46° 50.8° 44.8° - - -
2/27 8:00pm 198 11 G 18 48° 91% - - 46° 50.8° 44.8° - - -
2/27 7:50pm 200 10 G 16 48° 91% - - 46° 50.8° 44.8° - - -
2/27 7:40pm 204 12 G 20 48° 91% - - 45° 50.8° 44.8° - - -
2/27 7:30pm 203 15 G 24 48° 90% - - 45° 50.8° 44.8° - - -
2/27 7:20pm 208 11 G 17 48° 90% - - 45° 50.8° 44.8° - - -
2/27 7:10pm 202 12 G 19 48° 90% - - 45° 50.8° 44.8° - - -
2/27 7:00pm 204 12 G 18 48° 90% - - 45° 50.8° 44.8° - - -
2/27 6:50pm 203 10 G 21 48° 91% - - 45° 50.8° 44.8° - - -
2/27 6:40pm 208 7 G 14 48° 90% - - 45° 50.8° 44.8° - - -
2/27 6:30pm 210 6 G 9 48° 89% - - 45° 50.8° 44.8° - - -
2/27 6:20pm 214 8 G 14 48° 89% - - 45° 50.8° 44.8° - - -
2/27 6:10pm 201 7 G 12 48° 89% - - 45° 50.8° 44.8° - - -
2/27 6:00pm 184 10 G 14 48° 89% - - 45° 50.8° 44.8° - - -
2/27 5:50pm 197 10 G 17 48° 90% - - 45° 50.8° 44.8° - - -
2/27 5:40pm 200 11 G 17 48° 90% - - 45° 50.8° 44.8° - - -
2/27 5:30pm 193 11 G 17 48° 91% - - 45° 50.8° 44.8° - - -
2/27 5:20pm 197 13 G 19 48° 91% - - 46° 50.8° 44.8° - - -
2/27 5:10pm 194 14 G 18 48° 91% - - 46° 50.8° 44.8° - - -
2/27 5:00pm 193 14 G 22 49° 90% - - 46° 50.8° 44.8° - - -
2/27 4:50pm 203 14 G 21 49° 91% - - 46° 50.8° 44.8° - - -
2/27 4:40pm 207 10 G 17 49° 93% - - 47° 50.8° 44.8° - - -
2/27 4:30pm 206 9 G 15 49° 92% - - 46° 50.8° 44.8° - - -
2/27 4:20pm 198 9 G 14 49° 91% - - 46° 50.8° 44.8° - - -
2/27 4:10pm 208 10 G 17 49° 90% - - 46° 50.8° 44.8° - - -
2/27 4:00pm 210 12 G 18 49° 91% - - 47° 50.8° 44.8° - - -
2/27 3:50pm 208 11 G 17 49° 92% - - 47° 50.8° 44.8° - - -
2/27 3:40pm 211 9 G 13 49° 91% - - 47° 50.8° 44.8° - - -
2/27 3:30pm 214 8 G 15 49° 89% - - 46° 50.8° 44.8° - - -
2/27 3:20pm 218 12 G 18 49° 90% - - 47° 50.8° 44.8° - - -
2/27 3:10pm 216 12 G 21 49° 92% - - 47° 50.8° 44.8° - - -
2/27 3:00pm 214 10 G 15 49° 93% - - 47° 50.8° 44.8° - - -
2/27 2:50pm 206 12 G 20 49° 91% - - 47° 50.8° 44.8° - - -
2/27 2:40pm 198 12 G 19 49° 91% - - 47° 50.8° 44.8° - - -
2/27 2:30pm 199 12 G 16 49° 91% - - 46° 50.8° 44.8° - - -
2/27 2:20pm 201 12 G 19 49° 91% - - 46° 50.8° 44.8° - - -
2/27 2:10pm 198 12 G 19 49° 92% - - 46° 50.8° 44.8° - - -
2/27 2:00pm 201 13 G 19 49° 92% - - 46° 50.8° 44.8° - - -
2/27 1:50pm 203 10 G 17 49° 93% - - 47° 50.8° 44.8° - - -
2/27 1:40pm 211 13 G 21 49° 93% - - 48° 50.8° 44.8° - - -
2/27 1:30pm 215 13 G 22 49° 94% - - 48° 50.8° 44.8° - - -
2/27 1:20pm 218 12 G 22 49° 95% - - 48° 50.8° 44.8° - - -
2/27 1:10pm 218 10 G 18 49° 95% - - 48° 50.8° 44.8° - - -
2/27 1:00pm 221 9 G 16 49° 95% - - 48° 50.8° 44.8° - - -
2/27 12:50pm 223 10 G 17 50° 93% - - 48° 50.8° 44.8° - - -
2/27 12:40pm 213 9 G 14 50° 93% - - 48° 50.8° 44.8° - - -
2/27 12:30pm 217 11 G 20 50° 93% - - 48° 50.8° 44.8° - - -
2/27 12:20pm 212 8 G 15 50° 93% - - 48° 50.8° 44.8° - - -
2/27 12:10pm 213 9 G 13 50° 92% - - 48° 50.8° 44.8° - - -
2/27 12:00pm 210 12 G 22 50° 91% - - 48° 50.8° 44.8° - - -
2/27 11:50am 209 14 G 23 50° 91% - - 48° 50.8° 44.8° - - -
2/27 11:40am 207 13 G 21 50° 91% - - 48° 50.8° 44.8° - - -
2/27 11:30am 210 10 G 19 50° 93% - - 48° 50.8° 44.8° - - -
2/27 11:20am 217 12 G 19 50° 92% - - 48° 50.8° 44.8° - - -
2/27 11:10am 207 14 G 22 50° 91% - - 48° 50.8° 44.8° - - -
2/27 11:00am 210 13 G 20 51° 90% - - 48° 50.8° 44.8° - - -
2/27 10:50am 204 14 G 21 51° 90% - - 48° 50.8° 44.8° - - -
2/27 10:40am 202 16 G 24 50° 90% - - 48° 50.6° 44.8° - - -
2/27 10:30am 207 15 G 22 50° 90% - - 48° 50.6° 44.8° - - -
2/27 10:20am 205 14 G 23 50° 91% - - 48° 50.5° 44.8° - - -
2/27 10:10am 198 15 G 25 50° 91% - - 48° 50.5° 44.8° - - -
2/27 10:00am 201 13 G 21 50° 91% - - 48° 50.5° 44.8° - - -
2/27 9:50am 200 12 G 21 50° 92% - - 48° 50.5° 44.8° - - -
2/27 9:40am 197 7 G 12 50° 94% - - 48° 50.4° 44.8° - - -
2/27 9:30am 193 6 G 15 50° 95% - - 48° 50° 44.8° - - -
2/27 9:20am 194 9 G 17 49° 96% - - 48° 49.7° 44.8° - - -
2/27 9:10am 211 7 G 11 49° 96% - - 48° 49.6° 44.8° - - -
2/27 9:00am 212 9 G 16 49° 96% - - 48° 49.5° 44.8° - - -
2/27 8:50am 212 10 G 14 49° 96% - - 48° 49.5° 44.8° - - -
2/27 8:40am 217 7 G 12 49° 96% - - 48° 49.5° 44.8° - - -
2/27 8:30am 215 5 G 10 49° 96% - - 48° 49.5° 44.8° - - -
2/27 8:20am 216 4 G 7 49° 96% - - 48° 49.5° 44.8° - - -
2/27 8:10am 220 4 G 8 49° 96% - - 48° 49.5° 44.8° - - -
2/27 8:00am 229 6 G 10 49° 96% - - 48° 49.5° 44.8° - - -
2/27 7:50am 215 5 G 11 49° 96% - - 48° 49.5° 44.8° - - -
2/27 7:40am 216 5 G 8 49° 96% - - 48° 49.5° 44.8° - - -
2/27 7:30am 219 5 G 8 49° 96% - - 48° 49.5° 44.8° - - -
2/27 7:20am 221 6 G 9 49° 96% - - 48° 49.5° 44.8° - - -
2/27 7:10am 218 5 G 8 49° 96% - - 48° 49.5° 44.8° - - -
2/27 7:00am 215 7 G 9 49° 95% - - 48° 49.5° 44.8° - - -
2/27 6:50am 212 7 G 12 49° 95% - - 48° 49.5° 44.8° - - -
2/27 6:40am 214 7 G 10 49° 95% - - 48° 49.5° 44.8° - - -
2/27 6:30am 211 7 G 14 49° 95% - - 48° 49.5° 44.8° - - -
2/27 6:20am 211 10 G 15 49° 94% - - 48° 49.5° 44.8° - - -
2/27 6:10am 209 12 G 20 49° 94% - - 48° 49.5° 44.8° - - -
2/27 6:00am 204 12 G 18 49° 95% - - 48° 49.5° 44.8° - - -
2/27 5:50am 204 11 G 18 49° 96% - - 48° 49.4° 44.8° - - -
2/27 5:40am 209 11 G 16 49° 96% - - 48° 49.3° 44.8° - - -
2/27 5:30am 209 8 G 13 49° 96% - - 48° 49.2° 44.8° - - -
2/27 5:20am 207 8 G 12 49° 97% - - 48° 49° 44.8° - - -
2/27 5:10am 210 6 G 9 49° 97% - - 48° 48.8° 44.8° - - -
2/27 5:00am 217 7 G 9 49° 97% - - 48° 48.7° 44.8° - - -
2/27 4:50am 212 7 G 10 48° 97% - - 47° 48.6° 44.8° - - -
2/27 4:40am 215 6 G 10 48° 97% - - 47° 48.4° 44.8° - - -
2/27 4:30am 223 7 G 10 48° 97% - - 47° 48.4° 44.8° - - -
2/27 4:20am 218 6 G 9 48° 96% - - 47° 48.4° 44.8° - - -
2/27 4:10am 218 5 G 8 48° 96% - - 47° 48.2° 44.8° - - -
2/27 4:00am 218 5 G 7 48° 96% - - 47° 47.9° 44.8° - - -
2/27 3:50am 220 6 G 11 48° 96% - - 47° 47.8° 44.8° - - -
2/27 3:40am 224 7 G 10 48° 96% - - 47° 47.8° 44.8° - - -
2/27 3:30am 217 6 G 10 47° 96% - - 46° 47.7° 44.8° - - -
2/27 3:20am 215 5 G 7 47° 96% - - 46° 47.4° 44.8° - - -
2/27 3:10am 222 4 G 7 47° 96% - - 46° 47.2° 44.8° - - -
2/27 3:00am 211 4 G 6 47° 96% - - 46° 47.1° 44.8° - - -
2/27 2:50am 207 3 G 6 47° 96% - - 46° 46.9° 44.8° - - -
2/27 2:40am 205 3 G 6 47° 96% - - 46° 46.9° 44.8° - - -
2/27 2:30am 201 3 G 5 46° 96% - - 45° 46.7° 44.8° - - -
2/27 2:20am 210 3 G 5 46° 96% - - 45° 46.5° 44.8° - - -
2/27 2:10am 216 4 G 6 46° 96% - - 45° 46.5° 44.8° - - -
2/27 2:00am 213 5 G 7 46° 96% - - 45° 46.4° 44.8° - - -
2/27 1:50am 213 5 G 7 46° 96% - - 45° 46.3° 44.8° - - -
2/27 1:40am 214 5 G 8 46° 96% - - 45° 46.2° 44.8° - - -
2/27 1:30am 213 5 G 8 46° 96% - - 45° 46.1° 44.8° - - -
2/27 1:20am 213 5 G 8 46° 96% - - 45° 45.9° 44.8° - - -
2/27 1:10am 211 5 G 7 46° 96% - - 45° 45.7° 44.8° - - -
2/27 1:00am 213 5 G 8 45° 96% - - 44° 45.6° 44.8° - - -
2/27 12:50am 217 6 G 10 45° 96% - - 44° 45.5° 44.8° - - -
2/27 12:40am 210 5 G 8 45° 96% - - 44° 45.4° 44.8° - - -
2/27 12:30am 217 6 G 10 45° 96% - - 44° 45.3° 44.8° - - -
2/27 12:20am 209 6 G 9 45° 96% - - 44° 45.3° 44.8° - - -
2/27 12:10am 212 6 G 9 45° 96% - - 44° 45.2° 44.8° - - -
2/27 12:00am 209 7 G 11 45° 96% - - 44° 49.4° 41.1° - - -
2/26 11:50pm 209 8 G 12 45° 96% - - 44° 49.4° 41.1° - - -
2/26 11:40pm 209 9 G 13 45° 96% - - 44° 49.4° 41.1° - - -
2/26 11:30pm 207 9 G 13 45° 96% - - 44° 49.4° 41.1° - - -
2/26 11:20pm 212 9 G 13 45° 96% - - 44° 49.4° 41.1° - - -
2/26 11:10pm 209 9 G 12 45° 96% - - 43° 49.4° 41.1° - - -
2/26 11:00pm 210 8 G 12 45° 96% - - 43° 49.4° 41.1° - - -
2/26 10:50pm 211 9 G 14 45° 96% - - 43° 49.4° 41.1° - - -
2/26 10:40pm 212 9 G 14 45° 96% - - 43° 49.4° 41.1° - - -
2/26 10:30pm 213 8 G 13 45° 96% - - 43° 49.4° 41.1° - - -
2/26 10:20pm 208 7 G 12 45° 95% - - 43° 49.4° 41.1° - - -
2/26 10:10pm 218 8 G 12 45° 95% - - 43° 49.4° 41.1° - - -
2/26 10:00pm 214 7 G 11 45° 95% - - 43° 49.4° 41.1° - - -
2/26 9:50pm 216 7 G 12 45° 95% - - 43° 49.4° 41.1° - - -
2/26 9:40pm 216 7 G 13 45° 94% - - 43° 49.4° 41.1° - - -
2/26 9:30pm 216 7 G 13 45° 94% - - 43° 49.4° 41.1° - - -
2/26 9:20pm 213 7 G 12 45° 93% - - 43° 49.4° 41.1° - - -
2/26 9:10pm 216 7 G 13 45° 93% - - 43° 49.4° 41.1° - - -
2/26 9:00pm 218 10 G 15 45° 91% - - 43° 49.4° 41.1° - - -
2/26 8:50pm 218 10 G 17 45° 90% - - 42° 49.4° 41.1° - - -
2/26 8:40pm 214 10 G 16 45° 91% - - 43° 49.4° 41.1° - - -
2/26 8:30pm 214 8 G 14 45° 91% - - 43° 49.4° 41.1° - - -
2/26 8:20pm 224 9 G 18 46° 91% - - 43° 49.4° 41.1° - - -
2/26 8:10pm 221 10 G 17 46° 91% - - 43° 49.4° 41.1° - - -
2/26 8:00pm 216 9 G 17 46° 91% - - 43° 49.4° 41.1° - - -
2/26 7:50pm 216 11 G 20 46° 90% - - 43° 49.4° 41.1° - - -
2/26 7:40pm 214 9 G 16 46° 90% - - 43° 49.4° 41.1° - - -
2/26 7:30pm 213 10 G 16 46° 90% - - 43° 49.4° 41.1° - - -
2/26 7:20pm 215 9 G 14 46° 92% - - 44° 49.4° 41.1° - - -
2/26 7:10pm 215 8 G 12 46° 92% - - 44° 49.4° 41.1° - - -
2/26 7:00pm 216 8 G 16 46° 91% - - 43° 49.4° 41.1° - - -
2/26 6:50pm 219 7 G 13 46° 89% - - 43° 49.4° 41.1° - - -
2/26 6:40pm 219 6 G 11 46° 87% - - 42° 49.4° 41.1° - - -
2/26 6:30pm 217 7 G 14 46° 86% - - 42° 49.4° 41.1° - - -
2/26 6:20pm 219 7 G 14 46° 86% - - 42° 49.4° 41.1° - - -
2/26 6:10pm 218 6 G 10 46° 85% - - 42° 49.4° 41.1° - - -
2/26 6:00pm 220 7 G 11 46° 84% - - 42° 49.4° 41.1° - - -
2/26 5:50pm 215 7 G 15 47° 85% - - 42° 49.4° 41.1° - - -
2/26 5:40pm 220 9 G 18 47° 83% - - 42° 49.4° 41.1° - - -
2/26 5:30pm 217 9 G 14 47° 81% - - 41° 49.4° 41.1° - - -
2/26 5:20pm 214 7 G 12 47° 80% - - 41° 49.4° 41.1° - - -
2/26 5:10pm 220 8 G 15 47° 78% - - 41° 49.4° 41.1° - - -
2/26 5:00pm 218 8 G 14 47° 75% - - 40° 49.4° 41.1° - - -